Time;durP1;ratioP1;P1;durP2;ratioP2;P2;SDS_P1;SDS_P2;PMS_P1;PMS_P2;Temp;Humidity;BMP_temperature;BMP_pressure;BME280_temperature;BME280_humidity;BME280_pressure;Samples;Min_cycle;Max_cycle;Signal;HPM_P1;HPM_P2
2023/10/28 00:01:26;;;;;;;4.47;2.20;;;;;;;6.28;100.00;96396.31;6221887;28;20204;-57
2023/10/28 00:04:29;;;;;;;3.97;1.10;;;;;;;6.45;100.00;96412.13;6214139;28;20196;-56
2023/10/28 00:07:35;;;;;;;14.33;9.40;;;;;;;6.51;100.00;96413.81;6220785;28;20188;-57
2023/10/28 00:10:39;;;;;;;9.70;6.10;;;;;;;6.52;100.00;96409.31;6218179;28;20222;-56
2023/10/28 00:13:41;;;;;;;8.20;6.67;;;;;;;6.53;100.00;96405.59;6208257;28;20199;-56
2023/10/28 00:16:43;;;;;;;6.37;4.43;;;;;;;6.54;100.00;96413.28;6226160;28;20211;-57
2023/10/28 00:19:46;;;;;;;5.00;3.00;;;;;;;6.56;100.00;96416.50;6214827;28;20189;-57
2023/10/28 00:22:53;;;;;;;3.87;3.37;;;;;;;6.57;100.00;96423.41;6212622;28;20224;-57
2023/10/28 00:26:12;;;;;;;3.20;2.70;;;;;;;6.64;100.00;96425.84;6222614;28;20686;-57
2023/10/28 00:29:15;;;;;;;3.83;1.97;;;;;;;6.65;100.00;96433.56;6211865;28;20209;-57
2023/10/28 00:32:17;;;;;;;4.23;2.03;;;;;;;6.67;100.00;96444.69;6233137;28;20228;-57
2023/10/28 00:35:21;;;;;;;3.77;1.37;;;;;;;6.71;100.00;96453.72;6222654;28;20679;-57
2023/10/28 00:38:24;;;;;;;6.70;4.10;;;;;;;6.67;100.00;96451.81;6228892;28;20341;-55
2023/10/28 00:41:26;;;;;;;56.20;42.20;;;;;;;6.59;100.00;96445.09;6222080;28;20196;-57
2023/10/28 00:44:32;;;;;;;6.17;4.23;;;;;;;6.53;100.00;96438.16;6202773;28;20212;-56
2023/10/28 00:47:38;;;;;;;2.53;1.10;;;;;;;6.54;100.00;96439.75;6219495;28;20766;-57
2023/10/28 00:50:40;;;;;;;7.83;6.30;;;;;;;6.51;100.00;96442.09;6217471;28;20260;-56
2023/10/28 00:53:43;;;;;;;8.70;2.20;;;;;;;6.47;100.00;96431.22;6219351;28;20269;-56
2023/10/28 00:56:45;;;;;;;4.67;2.97;;;;;;;6.49;100.00;96442.34;6224269;28;20579;-57
2023/10/28 00:59:48;;;;;;;13.83;11.83;;;;;;;6.49;100.00;96438.88;6219669;28;20246;-56
2023/10/28 01:02:52;;;;;;;4.07;2.23;;;;;;;6.38;100.00;96430.84;6214191;28;20581;-56
2023/10/28 01:05:54;;;;;;;12.30;10.13;;;;;;;6.45;100.00;96454.44;6214644;28;20228;-55
2023/10/28 01:08:56;;;;;;;23.03;16.73;;;;;;;6.43;100.00;96449.41;6224868;28;20208;-56
2023/10/28 01:12:02;;;;;;;7.83;2.90;;;;;;;6.40;100.00;96459.66;6207677;28;20227;-56
2023/10/28 01:15:05;;;;;;;1.43;0.70;;;;;;;6.33;100.00;96454.56;6214955;28;20679;-56
2023/10/28 01:18:10;;;;;;;0.77;0.40;;;;;;;6.29;100.00;96460.59;6223599;28;20204;-56
2023/10/28 01:21:12;;;;;;;0.87;0.40;;;;;;;6.23;100.00;96465.00;6216322;28;20199;-55
2023/10/28 01:24:14;;;;;;;7.17;4.20;;;;;;;6.14;100.00;96429.47;6219736;28;20226;-56
2023/10/28 01:27:19;;;;;;;6.23;1.40;;;;;;;6.28;100.00;96464.28;6216586;28;20199;-56
2023/10/28 01:30:22;;;;;;;0.93;0.60;;;;;;;6.21;100.00;96453.91;6219225;28;20213;-56
2023/10/28 01:33:24;;;;;;;2.37;0.77;;;;;;;6.10;100.00;96436.28;6220514;28;20292;-57
2023/10/28 01:36:26;;;;;;;1.83;0.50;;;;;;;6.15;100.00;96450.34;6217644;28;20336;-57
2023/10/28 01:39:28;;;;;;;3.10;0.40;;;;;;;6.15;100.00;96446.91;6230008;28;20682;-55
2023/10/28 01:42:30;;;;;;;1.27;0.40;;;;;;;6.11;100.00;96448.47;6226457;28;20689;-55
2023/10/28 01:45:32;;;;;;;0.57;0.50;;;;;;;6.15;100.00;96457.50;6215033;28;20195;-57
2023/10/28 01:48:34;;;;;;;0.97;0.40;;;;;;;6.11;100.00;96453.75;6203116;28;20204;-57
2023/10/28 01:51:36;;;;;;;4.00;0.70;;;;;;;6.07;100.00;96457.94;6209617;28;20688;-56
2023/10/28 01:54:42;;;;;;;1.73;0.57;;;;;;;6.05;100.00;96460.00;6215624;28;20200;-56
2023/10/28 01:57:44;;;;;;;0.43;0.33;;;;;;;6.03;100.00;96473.47;6216961;28;20203;-55
2023/10/28 02:00:46;;;;;;;0.33;0.27;;;;;;;6.02;100.00;96469.22;6224071;28;20226;-55
2023/10/28 02:03:50;;;;;;;0.83;0.30;;;;;;;6.02;100.00;96468.44;6218859;28;20288;-56
2023/10/28 02:06:52;;;;;;;1.00;0.30;;;;;;;6.00;100.00;96467.84;6212164;28;20198;-56
2023/10/28 02:09:54;;;;;;;0.87;0.40;;;;;;;5.97;100.00;96471.78;6221162;28;20214;-56
2023/10/28 02:12:57;;;;;;;3.23;0.33;;;;;;;5.97;100.00;96473.63;6223345;28;20198;-56
2023/10/28 02:15:59;;;;;;;0.70;0.30;;;;;;;5.93;100.00;96476.75;6216133;28;20723;-55
2023/10/28 02:19:02;;;;;;;1.33;0.80;;;;;;;5.90;100.00;96474.56;6224979;28;20204;-56
2023/10/28 02:22:04;;;;;;;0.87;0.30;;;;;;;5.88;100.00;96473.22;6225349;28;20553;-56
2023/10/28 02:25:16;;;;;;;1.73;0.40;;;;;;;5.87;100.00;96482.19;6217976;28;20608;-55
2023/10/28 02:28:18;;;;;;;1.17;0.40;;;;;;;5.82;100.00;96477.63;6213311;28;20318;-54
2023/10/28 02:31:21;;;;;;;1.00;0.57;;;;;;;5.83;100.00;96475.78;6228184;28;20692;-55
2023/10/28 02:34:25;;;;;;;0.63;0.30;;;;;;;5.80;100.00;96482.31;6210407;28;20218;-56
2023/10/28 02:37:27;;;;;;;1.20;0.50;;;;;;;5.78;100.00;96468.56;6215762;28;20210;-55
2023/10/28 02:40:30;;;;;;;2.03;0.33;;;;;;;5.76;100.00;96480.41;6228172;28;20184;-57
2023/10/28 02:43:35;;;;;;;0.87;0.50;;;;;;;5.70;100.00;96477.69;6217356;28;20210;-57
2023/10/28 02:46:38;;;;;;;2.00;0.63;;;;;;;5.64;100.00;96464.63;6216081;28;20704;-57
2023/10/28 02:49:41;;;;;;;1.80;0.40;;;;;;;5.65;100.00;96474.97;6219134;28;20192;-56
2023/10/28 02:52:44;;;;;;;1.60;0.70;;;;;;;5.61;100.00;96471.19;6217281;28;20259;-55
2023/10/28 02:55:46;;;;;;;1.77;0.40;;;;;;;5.50;100.00;96460.72;6212740;28;20208;-57
2023/10/28 02:58:49;;;;;;;4.33;0.50;;;;;;;5.39;100.00;96446.53;6205292;28;20246;-56
2023/10/28 03:01:51;;;;;;;2.87;0.60;;;;;;;5.55;100.00;96481.91;6223820;28;20191;-56
2023/10/28 03:04:54;;;;;;;0.50;0.40;;;;;;;5.48;100.00;96478.66;6217854;28;20196;-57
2023/10/28 03:07:57;;;;;;;0.50;0.50;;;;;;;5.49;100.00;96493.44;6218217;28;20199;-55
2023/10/28 03:11:00;;;;;;;5.10;0.50;;;;;;;5.42;100.00;96490.97;6217586;28;20215;-55
2023/10/28 03:14:02;;;;;;;1.63;0.43;;;;;;;5.46;100.00;96493.91;6212743;28;20211;-56
2023/10/28 03:17:04;;;;;;;3.47;0.60;;;;;;;5.41;100.00;96497.25;6215587;28;20350;-57
2023/10/28 03:20:11;;;;;;;2.03;0.40;;;;;;;5.37;100.00;96496.97;6219320;28;20199;-56
2023/10/28 03:23:15;;;;;;;0.63;0.47;;;;;;;5.35;100.00;96491.09;6226187;28;20205;-56
2023/10/28 03:26:17;;;;;;;1.27;0.40;;;;;;;5.37;100.00;96490.88;6219263;28;20671;-55
2023/10/28 03:29:19;;;;;;;1.33;0.40;;;;;;;5.31;100.00;96482.03;6214889;28;20863;-56
2023/10/28 03:32:22;;;;;;;1.23;0.50;;;;;;;5.16;100.00;96474.66;6224136;28;20212;-57
2023/10/28 03:35:24;;;;;;;3.27;0.80;;;;;;;5.28;100.00;96492.31;6227925;28;20199;-56
2023/10/28 03:38:26;;;;;;;1.30;0.30;;;;;;;5.30;100.00;96493.66;6220924;28;20463;-55
2023/10/28 03:41:28;;;;;;;0.60;0.27;;;;;;;5.26;100.00;96504.91;6227667;28;20693;-55
2023/10/28 03:44:31;;;;;;;1.60;1.10;;;;;;;5.16;100.00;96506.34;6230237;28;20197;-55
2023/10/28 03:47:40;;;;;;;0.50;0.40;;;;;;;5.10;100.00;96514.41;6227764;28;20727;-55
2023/10/28 03:50:44;;;;;;;0.70;0.60;;;;;;;5.02;100.00;96520.03;6223868;28;20746;-55
2023/10/28 03:53:49;;;;;;;3.10;0.63;;;;;;;4.97;100.00;96526.03;6230972;28;20773;-56
2023/10/28 03:56:51;;;;;;;4.60;0.70;;;;;;;4.99;100.00;96526.59;6226927;28;20207;-56
2023/10/28 03:59:53;;;;;;;3.83;1.00;;;;;;;5.02;100.00;96533.25;6215725;28;20244;-56
2023/10/28 04:02:56;;;;;;;3.80;0.70;;;;;;;5.04;100.00;96539.09;6230443;28;20657;-56
2023/10/28 04:05:58;;;;;;;1.23;0.50;;;;;;;5.04;100.00;96537.25;6218128;28;20692;-55
2023/10/28 04:09:00;;;;;;;0.43;0.30;;;;;;;5.08;100.00;96532.31;6223192;28;20282;-56
2023/10/28 04:12:05;;;;;;;1.47;0.50;;;;;;;5.14;100.00;96536.66;6220222;28;20212;-56
2023/10/28 04:15:09;;;;;;;0.50;0.40;;;;;;;5.16;100.00;96535.38;6221175;28;20532;-55
2023/10/28 04:18:11;;;;;;;0.40;0.40;;;;;;;5.20;100.00;96521.72;6226859;28;20221;-54
2023/10/28 04:21:13;;;;;;;2.60;0.50;;;;;;;5.24;100.00;96528.94;6216655;28;20668;-56
2023/10/28 04:24:16;;;;;;;0.70;0.37;;;;;;;5.25;100.00;96533.16;6223006;28;20203;-55
2023/10/28 04:27:18;;;;;;;1.47;0.83;;;;;;;5.26;100.00;96542.69;6216649;28;20202;-56
2023/10/28 04:30:20;;;;;;;0.50;0.50;;;;;;;5.28;100.00;96550.38;6214002;28;20203;-55
2023/10/28 04:33:24;;;;;;;0.40;0.40;;;;;;;5.25;100.00;96554.28;6226343;28;20193;-56
2023/10/28 04:36:33;;;;;;;0.83;0.50;;;;;;;5.09;100.00;96544.47;6223916;28;20203;-56
2023/10/28 04:39:40;;;;;;;2.77;0.50;;;;;;;5.24;100.00;96559.81;6221683;28;20197;-54
2023/10/28 04:42:43;;;;;;;1.80;0.60;;;;;;;5.24;100.00;96565.88;6228112;28;20218;-56
2023/10/28 04:45:45;;;;;;;1.50;0.53;;;;;;;5.26;100.00;96563.00;6227386;28;20199;-56
2023/10/28 04:48:47;;;;;;;0.60;0.50;;;;;;;5.30;100.00;96566.78;6222344;28;20725;-56
2023/10/28 04:51:49;;;;;;;1.40;0.50;;;;;;;5.32;100.00;96564.69;6211552;28;20219;-56
2023/10/28 04:54:51;;;;;;;1.50;0.50;;;;;;;5.38;100.00;96587.53;6231684;28;20210;-56
2023/10/28 04:57:54;;;;;;;2.97;0.70;;;;;;;5.47;100.00;96611.72;6220847;28;20252;-56
2023/10/28 05:00:56;;;;;;;3.37;1.17;;;;;;;5.55;100.00;96630.66;6222942;28;20234;-56
2023/10/28 05:04:00;;;;;;;0.83;0.63;;;;;;;5.62;100.00;96638.44;6223660;28;20560;-55
2023/10/28 05:07:04;;;;;;;1.23;0.63;;;;;;;5.72;100.00;96620.16;6224552;28;20207;-56
2023/10/28 05:10:06;;;;;;;2.13;0.60;;;;;;;5.80;100.00;96627.66;6222530;28;20190;-55
2023/10/28 05:13:12;;;;;;;0.47;0.47;;;;;;;5.87;100.00;96625.69;6207113;28;20206;-56
2023/10/28 05:16:14;;;;;;;0.70;0.40;;;;;;;5.96;100.00;96628.78;6222068;28;20830;-57
2023/10/28 05:19:18;;;;;;;1.53;0.77;;;;;;;6.05;100.00;96623.91;6225387;28;20663;-56
2023/10/28 05:22:21;;;;;;;1.80;0.60;;;;;;;6.19;100.00;96633.13;6219314;28;20218;-57
2023/10/28 05:25:23;;;;;;;1.13;0.70;;;;;;;6.20;100.00;96600.34;6225888;28;20575;-56
2023/10/28 05:28:25;;;;;;;1.50;0.60;;;;;;;6.49;100.00;96639.94;6221878;28;20196;-56
2023/10/28 05:31:27;;;;;;;1.03;0.73;;;;;;;6.62;100.00;96629.84;6226016;28;20215;-56
2023/10/28 05:34:29;;;;;;;1.70;0.80;;;;;;;7.08;100.00;96621.72;6218839;28;20207;-56
2023/10/28 05:37:31;;;;;;;1.17;0.87;;;;;;;7.39;100.00;96636.16;6227888;28;20316;-57
2023/10/28 05:40:33;;;;;;;2.43;0.60;;;;;;;7.55;100.00;96610.66;6220140;28;20199;-57
2023/10/28 05:43:36;;;;;;;1.70;0.40;;;;;;;8.02;100.00;96621.44;6218941;28;20200;-56
2023/10/28 05:46:38;;;;;;;0.30;0.30;;;;;;;8.41;100.00;96645.16;6225058;28;20677;-57
2023/10/28 05:49:42;;;;;;;0.43;0.43;;;;;;;8.41;100.00;96648.63;6224740;28;20699;-55
2023/10/28 05:52:44;;;;;;;0.37;0.30;;;;;;;9.08;100.00;96649.91;6221535;28;20679;-58
2023/10/28 05:55:46;;;;;;;0.23;0.23;;;;;;;9.36;99.08;96645.22;6219902;28;20196;-55
2023/10/28 05:58:48;;;;;;;1.23;0.20;;;;;;;9.49;95.04;96644.75;6215468;28;20613;-57
2023/10/28 06:01:51;;;;;;;3.63;0.50;;;;;;;9.51;99.03;96656.75;6216913;28;20185;-58
2023/10/28 06:04:53;;;;;;;1.07;0.40;;;;;;;9.40;100.00;96665.72;6218194;28;20203;-58
2023/10/28 06:07:56;;;;;;;0.40;0.23;;;;;;;9.42;100.00;96670.81;6225815;28;20220;-57
2023/10/28 06:10:58;;;;;;;0.50;0.40;;;;;;;9.63;93.21;96661.03;6222070;28;20199;-57
2023/10/28 06:14:01;;;;;;;0.63;0.30;;;;;;;9.77;90.76;96662.16;6214243;28;20229;-58
2023/10/28 06:17:04;;;;;;;0.90;0.33;;;;;;;10.03;85.86;96666.47;6221745;28;20279;-57
2023/10/28 06:20:07;;;;;;;1.50;0.40;;;;;;;10.37;82.28;96660.72;6223716;28;20196;-56
2023/10/28 06:23:09;;;;;;;0.93;0.60;;;;;;;10.48;82.66;96662.31;6217037;28;20218;-58
2023/10/28 06:26:13;;;;;;;0.50;0.30;;;;;;;10.46;83.05;96669.78;6215780;28;20207;-57
2023/10/28 06:29:16;;;;;;;0.60;0.40;;;;;;;10.35;91.92;96665.50;6217128;28;20251;-57
2023/10/28 06:32:18;;;;;;;0.43;0.30;;;;;;;10.35;85.74;96672.69;6225209;28;20299;-58
2023/10/28 06:35:20;;;;;;;1.60;0.40;;;;;;;10.27;88.96;96682.00;6212944;28;20260;-57
2023/10/28 06:38:25;;;;;;;0.53;0.30;;;;;;;10.30;80.33;96666.31;6218984;28;20230;-57
2023/10/28 06:41:27;;;;;;;0.60;0.40;;;;;;;10.61;79.47;96682.28;6222760;28;20641;-57
2023/10/28 06:44:29;;;;;;;0.77;0.40;;;;;;;10.86;79.05;96681.47;6216937;28;20569;-57
2023/10/28 06:47:34;;;;;;;1.60;0.40;;;;;;;11.20;72.93;96672.91;6207440;28;20204;-58
2023/10/28 06:50:37;;;;;;;4.40;0.50;;;;;;;10.88;75.28;96658.03;6204860;28;20256;-57
2023/10/28 06:53:42;;;;;;;0.40;0.40;;;;;;;11.01;76.70;96686.78;6214934;28;20651;-56
2023/10/28 06:56:44;;;;;;;1.33;0.40;;;;;;;11.22;72.60;96684.88;6220355;28;20206;-57
2023/10/28 06:59:47;;;;;;;0.67;0.50;;;;;;;11.46;71.23;96706.44;6227928;28;20232;-57
2023/10/28 07:02:49;;;;;;;2.30;0.50;;;;;;;11.39;76.07;96697.13;6216739;28;20545;-57
2023/10/28 07:05:51;;;;;;;1.90;0.40;;;;;;;11.51;70.92;96703.75;6219376;28;20559;-59
2023/10/28 07:08:53;;;;;;;1.73;0.30;;;;;;;11.54;71.09;96710.41;6221863;28;20193;-58
2023/10/28 07:11:55;;;;;;;1.13;0.50;;;;;;;11.71;70.71;96712.75;6225464;28;20212;-59
2023/10/28 07:15:00;;;;;;;1.00;0.40;;;;;;;11.00;71.65;96618.56;6221651;28;20669;-58
2023/10/28 07:18:05;;;;;;;0.87;0.50;;;;;;;11.98;66.80;96710.53;6217492;28;20200;-58
2023/10/28 07:21:07;;;;;;;0.60;0.37;;;;;;;11.92;68.51;96716.16;6231267;28;20192;-57
2023/10/28 07:24:11;;;;;;;1.20;0.50;;;;;;;11.84;67.14;96723.69;6224065;28;20203;-58
2023/10/28 07:27:13;;;;;;;0.50;0.40;;;;;;;11.85;68.70;96727.94;6214428;28;20203;-58
2023/10/28 07:30:15;;;;;;;1.37;0.30;;;;;;;12.04;65.53;96735.34;6220669;28;21974;-57
2023/10/28 07:33:18;;;;;;;2.00;0.60;;;;;;;11.92;67.68;96741.00;6229073;28;20718;-58
2023/10/28 07:36:22;;;;;;;1.63;0.43;;;;;;;11.87;66.14;96738.34;6216236;28;20196;-58
2023/10/28 07:39:24;;;;;;;0.53;0.30;;;;;;;11.94;66.16;96738.84;6219234;28;20200;-57
2023/10/28 07:42:27;;;;;;;0.53;0.40;;;;;;;11.80;70.80;96751.94;6222076;28;20192;-58
2023/10/28 07:45:29;;;;;;;1.30;0.43;;;;;;;11.70;72.54;96748.50;6230116;28;20205;-58
2023/10/28 07:48:31;;;;;;;2.07;0.60;;;;;;;11.62;70.93;96752.53;6214601;28;20216;-59
2023/10/28 07:51:35;;;;;;;0.90;0.50;;;;;;;11.59;75.16;96751.22;6229835;28;20217;-58
2023/10/28 07:54:40;;;;;;;1.50;0.50;;;;;;;11.36;78.62;96760.59;6219114;28;20199;-58
2023/10/28 07:57:46;;;;;;;1.47;0.57;;;;;;;11.40;69.83;96752.06;6225867;28;20205;-58
2023/10/28 08:00:48;;;;;;;1.63;0.70;;;;;;;11.93;64.02;96755.94;6232263;28;20239;-57
2023/10/28 08:03:51;;;;;;;2.20;0.60;;;;;;;12.00;71.77;96759.09;6230826;28;20767;-58
2023/10/28 08:06:54;;;;;;;1.70;0.67;;;;;;;11.87;77.87;96762.34;6220211;28;20286;-49
2023/10/28 08:09:57;;;;;;;6.07;0.70;;;;;;;11.81;77.62;96750.88;6219647;28;20224;-47
2023/10/28 08:13:00;;;;;;;1.23;0.60;;;;;;;11.78;75.14;96759.44;6233826;28;20286;-46
2023/10/28 08:16:03;;;;;;;0.97;0.50;;;;;;;11.99;67.68;96772.72;6223539;28;20196;-47
2023/10/28 08:19:06;;;;;;;2.57;0.67;;;;;;;12.50;62.34;96759.91;6221322;28;20199;-46
2023/10/28 08:22:09;;;;;;;0.57;0.50;;;;;;;12.39;67.81;96769.06;6225925;28;20188;-45
2023/10/28 08:25:16;;;;;;;3.90;0.70;;;;;;;12.41;67.12;96764.25;6222382;28;20614;-47
2023/10/28 08:28:19;;;;;;;2.30;0.70;;;;;;;12.32;71.19;96776.59;6223391;28;20238;-47
2023/10/28 08:31:23;;;;;;;1.20;0.47;;;;;;;12.44;64.98;96776.25;6220184;28;20563;-46
2023/10/28 08:34:26;;;;;;;3.53;0.70;;;;;;;12.40;68.38;96784.81;6220555;28;20193;-50
2023/10/28 08:37:28;;;;;;;1.43;0.50;;;;;;;12.61;62.81;96790.88;6207066;28;20661;-47
2023/10/28 08:40:30;;;;;;;3.43;0.73;;;;;;;12.61;61.74;96800.72;6208470;28;20684;-47
2023/10/28 08:43:36;;;;;;;1.73;0.50;;;;;;;12.60;66.19;96799.94;6218765;28;20185;-47
2023/10/28 08:46:42;;;;;;;1.53;0.47;;;;;;;12.57;63.67;96797.03;6229667;28;20189;-46
2023/10/28 08:49:48;;;;;;;2.43;0.60;;;;;;;12.44;63.96;96811.78;6211600;28;20193;-50
2023/10/28 08:52:56;;;;;;;2.70;0.90;;;;;;;12.39;62.83;96811.81;6219535;28;20336;-46
2023/10/28 08:56:01;;;;;;;1.63;0.40;;;;;;;12.69;59.85;96802.84;6224739;28;20188;-48
2023/10/28 08:59:03;;;;;;;0.80;0.30;;;;;;;12.57;60.60;96805.84;6220405;28;20227;-50
2023/10/28 09:02:09;;;;;;;0.80;0.47;;;;;;;12.59;60.63;96816.25;6223884;28;20691;-48
2023/10/28 09:05:12;;;;;;;0.97;0.60;;;;;;;12.65;60.90;96801.78;6222256;28;20208;-46
2023/10/28 09:08:15;;;;;;;2.30;0.60;;;;;;;12.64;60.84;96806.31;6219026;28;20677;-49
2023/10/28 09:11:17;;;;;;;2.67;0.80;;;;;;;12.51;63.21;96814.97;6218907;28;20193;-46
2023/10/28 09:14:19;;;;;;;2.40;0.43;;;;;;;12.26;67.02;96783.03;6228031;28;20208;-56
2023/10/28 09:17:22;;;;;;;1.13;0.60;;;;;;;12.31;63.46;96809.69;6229352;28;20698;-55
2023/10/28 09:20:24;;;;;;;3.07;0.77;;;;;;;12.42;62.02;96818.50;6219951;28;20232;-52
2023/10/28 09:23:30;;;;;;;0.80;0.40;;;;;;;12.45;61.69;96818.72;6224629;28;20787;-49
2023/10/28 09:26:32;;;;;;;1.90;0.60;;;;;;;12.43;64.67;96815.53;6227286;28;20203;-50
2023/10/28 09:29:35;;;;;;;1.23;0.60;;;;;;;12.61;61.82;96824.78;6221050;28;20196;-50
2023/10/28 09:32:38;;;;;;;0.83;0.37;;;;;;;12.64;66.17;96824.25;6205564;28;20211;-53
2023/10/28 09:35:45;;;;;;;0.80;0.43;;;;;;;12.60;64.87;96829.31;6230753;28;20196;-55
2023/10/28 09:38:47;;;;;;;0.50;0.50;;;;;;;12.50;67.13;96816.03;6221701;28;20202;-54
2023/10/28 09:41:52;;;;;;;2.07;0.50;;;;;;;12.75;63.35;96824.97;6217283;28;20575;-54
2023/10/28 09:44:54;;;;;;;1.90;0.53;;;;;;;12.75;62.67;96830.31;6212866;28;20686;-53
2023/10/28 09:47:58;;;;;;;1.97;0.40;;;;;;;12.70;62.05;96841.84;6221450;28;20619;-53
2023/10/28 09:51:00;;;;;;;1.43;0.40;;;;;;;12.79;61.32;96826.03;6216630;28;20189;-53
2023/10/28 09:54:08;;;;;;;1.33;0.50;;;;;;;12.86;61.76;96826.53;6213108;28;20223;-50
2023/10/28 09:57:11;;;;;;;1.63;0.50;;;;;;;12.87;65.66;96818.22;6222536;28;20580;-53
2023/10/28 10:00:19;;;;;;;1.73;0.60;;;;;;;12.83;70.31;96819.84;6220123;28;20240;-51
2023/10/28 10:04:07;;;;;;;1.60;0.50;;;;;;;13.00;72.36;96819.47;6220281;28;20185;-53
2023/10/28 10:07:10;;;;;;;0.93;0.40;;;;;;;13.37;62.78;96812.81;6223474;28;20197;-54
2023/10/28 10:10:13;;;;;;;3.30;0.60;;;;;;;13.36;70.09;96806.66;6220317;28;20578;-51
2023/10/28 10:13:16;;;;;;;0.87;0.50;;;;;;;13.18;64.98;96786.72;6220248;28;20212;-53
2023/10/28 10:16:28;;;;;;;1.73;0.60;;;;;;;13.39;66.73;96803.41;6224306;28;20665;-51
2023/10/28 10:19:34;;;;;;;2.20;0.63;;;;;;;13.65;60.67;96800.50;6219495;28;20201;-52
2023/10/28 10:22:39;;;;;;;0.80;0.50;;;;;;;13.60;62.00;96804.03;6218890;28;20208;-52
2023/10/28 10:25:43;;;;;;;1.07;0.40;;;;;;;13.63;66.25;96802.66;6219956;28;20892;-53
2023/10/28 10:28:49;;;;;;;0.57;0.57;;;;;;;13.53;61.85;96798.19;6231515;28;20551;-52
2023/10/28 10:31:55;;;;;;;0.80;0.40;;;;;;;13.51;57.64;96796.91;6229189;28;20569;-53
2023/10/28 10:34:57;;;;;;;2.30;0.60;;;;;;;13.49;57.35;96797.16;6211088;28;20209;-52
2023/10/28 10:38:04;;;;;;;1.17;0.50;;;;;;;13.39;60.34;96797.25;6235472;28;20196;-54
2023/10/28 10:41:07;;;;;;;0.90;0.43;;;;;;;13.20;68.89;96801.66;6219176;28;20258;-49
2023/10/28 10:44:25;;;;;;;1.23;0.50;;;;;;;13.06;69.81;96799.66;6220851;28;20272;-53
2023/10/28 10:47:28;;;;;;;1.93;0.50;;;;;;;12.99;70.80;96796.47;6229248;28;20256;-49
2023/10/28 10:50:31;;;;;;;0.43;0.40;;;;;;;12.92;71.60;96790.66;6227630;28;20199;-51
2023/10/28 10:53:43;;;;;;;1.77;0.50;;;;;;;12.86;74.28;96797.13;6223084;28;20312;-48
2023/10/28 10:56:46;;;;;;;1.80;0.50;;;;;;;12.93;70.62;96794.94;6214152;28;20205;-52
2023/10/28 10:59:48;;;;;;;2.00;0.50;;;;;;;13.00;73.79;96797.28;6225087;28;20233;-52
2023/10/28 11:02:54;;;;;;;0.87;0.50;;;;;;;13.05;74.43;96802.59;6222619;28;20201;-51
2023/10/28 11:05:56;;;;;;;1.47;0.33;;;;;;;13.20;76.27;96799.00;6223680;28;20201;-50
2023/10/28 11:09:03;;;;;;;1.17;0.43;;;;;;;13.78;57.68;96772.25;6237501;28;20892;-54
2023/10/28 11:12:05;;;;;;;0.93;0.50;;;;;;;14.06;62.07;96790.16;6225054;28;20216;-52
2023/10/28 11:15:08;;;;;;;3.90;0.50;;;;;;;14.16;68.26;96794.59;6215277;28;20684;-52
2023/10/28 11:18:11;;;;;;;0.40;0.40;;;;;;;14.12;68.52;96798.94;6219069;28;20192;-51
2023/10/28 11:21:15;;;;;;;1.50;0.47;;;;;;;14.12;69.13;96798.94;6229570;28;20283;-53
2023/10/28 11:24:19;;;;;;;1.17;0.70;;;;;;;14.30;64.32;96800.06;6216737;28;20663;-50
2023/10/28 11:27:22;;;;;;;0.90;0.40;;;;;;;14.91;51.60;96799.25;6214378;28;20676;-49
2023/10/28 11:30:26;;;;;;;0.80;0.40;;;;;;;15.23;51.88;96804.66;6228764;28;20687;-53
2023/10/28 11:33:28;;;;;;;0.67;0.40;;;;;;;15.05;51.80;96802.00;6228214;28;20205;-52
2023/10/28 11:36:33;;;;;;;2.00;0.50;;;;;;;15.14;56.35;96805.63;6204928;28;20300;-52
2023/10/28 11:39:40;;;;;;;1.50;0.43;;;;;;;15.06;59.95;96808.94;6227516;28;20219;-64
2023/10/28 11:42:42;;;;;;;1.37;0.40;;;;;;;14.93;54.71;96813.97;6233388;28;20192;-65
2023/10/28 11:45:44;;;;;;;1.50;0.40;;;;;;;15.09;52.15;96801.13;6212742;28;20197;-64
2023/10/28 11:48:46;;;;;;;0.50;0.40;;;;;;;15.00;59.76;96812.81;6228057;28;20196;-63
2023/10/28 11:51:48;;;;;;;1.90;0.60;;;;;;;14.86;62.58;96824.25;6227621;28;20653;-64
2023/10/28 11:54:50;;;;;;;0.80;0.47;;;;;;;14.89;60.56;96820.22;6227157;28;20788;-64
2023/10/28 11:57:54;;;;;;;1.53;0.40;;;;;;;15.14;54.19;96814.47;6216672;28;20223;-65
2023/10/28 12:00:57;;;;;;;1.17;0.30;;;;;;;15.22;53.63;96816.50;6226261;28;20317;-64
2023/10/28 12:03:59;;;;;;;0.93;0.40;;;;;;;15.17;52.50;96813.88;6233578;28;20189;-64
2023/10/28 12:07:03;;;;;;;1.40;0.50;;;;;;;15.41;49.69;96829.84;6221858;28;20271;-64
2023/10/28 12:10:06;;;;;;;0.93;0.40;;;;;;;15.21;50.85;96816.75;6223602;28;20188;-62
2023/10/28 12:13:17;;;;;;;0.93;0.40;;;;;;;15.29;58.02;96812.63;6230481;28;20199;-65
2023/10/28 12:16:20;;;;;;;0.90;0.37;;;;;;;15.09;57.05;96811.84;6228432;28;20204;-65
2023/10/28 12:19:23;;;;;;;1.17;0.40;;;;;;;14.95;58.57;96814.47;6224927;28;20200;-64
2023/10/28 12:22:25;;;;;;;1.47;0.50;;;;;;;14.75;62.25;96808.59;6222565;28;20784;-65
2023/10/28 12:25:27;;;;;;;2.30;0.63;;;;;;;14.62;60.99;96812.78;6221049;28;20205;-65
2023/10/28 12:28:29;;;;;;;1.20;0.40;;;;;;;14.49;59.92;96798.25;6223043;28;20201;-64
2023/10/28 12:31:34;;;;;;;0.67;0.53;;;;;;;14.38;62.82;96796.72;6232251;28;20290;-63
2023/10/28 12:34:37;;;;;;;2.00;0.30;;;;;;;14.55;60.19;96818.53;6228199;28;20763;-65
2023/10/28 12:37:42;;;;;;;2.70;0.60;;;;;;;14.46;62.26;96804.13;6223366;28;20689;-64
2023/10/28 12:40:44;;;;;;;0.90;0.50;;;;;;;14.36;62.34;96805.06;6230087;28;20193;-64
2023/10/28 12:43:47;;;;;;;3.07;0.50;;;;;;;14.61;52.38;96805.84;6218714;28;20745;-64
2023/10/28 12:46:49;;;;;;;0.57;0.37;;;;;;;15.15;50.05;96805.31;6223093;28;20193;-65
2023/10/28 12:49:51;;;;;;;1.33;0.50;;;;;;;14.99;54.90;96803.16;6221192;28;20568;-64
2023/10/28 12:52:53;;;;;;;0.70;0.40;;;;;;;14.96;50.55;96799.16;6236332;28;20214;-63
2023/10/28 12:55:56;;;;;;;1.10;0.60;;;;;;;14.90;54.61;96806.50;6222152;28;20224;-63
2023/10/28 12:58:59;;;;;;;0.97;0.50;;;;;;;14.66;54.98;96798.53;6220314;28;20652;-63
2023/10/28 13:02:04;;;;;;;0.60;0.30;;;;;;;14.79;56.53;96794.34;6226397;28;20204;-62
2023/10/28 13:05:06;;;;;;;2.87;0.40;;;;;;;14.96;51.46;96797.28;6226279;28;20188;-64
2023/10/28 13:08:09;;;;;;;1.37;0.47;;;;;;;14.80;53.45;96813.91;6225813;28;20208;-62
2023/10/28 13:11:11;;;;;;;0.57;0.40;;;;;;;14.90;49.93;96801.13;6223877;28;20199;-61
2023/10/28 13:14:18;;;;;;;1.10;0.60;;;;;;;14.90;53.76;96814.53;6231495;28;20581;-60
2023/10/28 13:17:20;;;;;;;1.23;0.30;;;;;;;15.09;48.51;96816.44;6226758;28;20287;-61
2023/10/28 13:20:23;;;;;;;1.00;0.50;;;;;;;15.43;46.96;96816.16;6223376;28;20204;-59
2023/10/28 13:23:25;;;;;;;1.27;0.40;;;;;;;15.50;47.63;96824.63;6232419;28;20180;-59
2023/10/28 13:26:27;;;;;;;1.77;0.70;;;;;;;15.48;47.15;96826.81;6226546;28;20204;-56
2023/10/28 13:29:29;;;;;;;1.40;0.50;;;;;;;15.54;47.38;96832.88;6221058;28;20221;-57
2023/10/28 13:32:31;;;;;;;1.33;0.50;;;;;;;15.53;45.60;96832.09;6226938;28;20652;-57
2023/10/28 13:35:49;;;;;;;2.60;0.77;;;;;;;15.21;50.96;96835.53;6235924;28;20197;-59
2023/10/28 13:38:51;;;;;;;0.83;0.40;;;;;;;14.68;57.17;96843.84;6225472;28;20235;-61
2023/10/28 13:41:54;;;;;;;1.90;0.70;;;;;;;14.47;53.92;96851.28;6222882;28;20820;-58
2023/10/28 13:44:56;;;;;;;0.87;0.40;;;;;;;14.28;58.67;96850.44;6234714;28;20188;-58
2023/10/28 13:47:59;;;;;;;3.77;0.40;;;;;;;13.93;61.62;96855.09;6230559;28;20573;-59
2023/10/28 13:51:02;;;;;;;1.00;0.57;;;;;;;13.63;59.10;96854.31;6222557;28;20193;-55
2023/10/28 13:54:04;;;;;;;1.17;0.50;;;;;;;13.63;60.22;96848.94;6237071;28;20211;-57
2023/10/28 13:57:08;;;;;;;1.10;0.40;;;;;;;13.59;62.26;96855.94;6230613;28;20299;-59
2023/10/28 14:00:10;;;;;;;1.57;0.60;;;;;;;13.53;60.28;96861.63;6225255;28;20232;-56
2023/10/28 14:03:17;;;;;;;1.40;0.40;;;;;;;13.39;64.32;96856.91;6218384;28;20192;-59
2023/10/28 14:06:19;;;;;;;3.00;0.40;;;;;;;13.32;64.70;96855.66;6235480;28;20259;-59
2023/10/28 14:09:21;;;;;;;2.73;0.70;;;;;;;13.17;65.43;96853.84;6228722;28;20196;-57
2023/10/28 14:12:24;;;;;;;2.10;0.50;;;;;;;13.03;67.77;96852.88;6221531;28;20770;-59
2023/10/28 14:15:27;;;;;;;1.77;0.40;;;;;;;12.91;69.09;96853.22;6227542;28;20649;-57
2023/10/28 14:18:30;;;;;;;2.07;0.60;;;;;;;12.80;69.76;96857.00;6225307;28;20216;-58
2023/10/28 14:21:33;;;;;;;2.63;0.60;;;;;;;12.71;71.71;96859.50;6206956;28;20307;-58
2023/10/28 14:24:35;;;;;;;1.33;0.50;;;;;;;12.49;72.14;96851.81;6224652;28;20197;-58